PWSweather.com
Personal Weather Stations
Station Observations
GEELONGWX1
Bell Post Hill, GeelongAU

Bell Post HillGeelongAU

Lat: -38.101, Lon: 144.326

Elevation: 204

Station Type: Davis Vantage Pro2

http://www.geelongweather.com

High Low Average
Temperature 81.6°F27.6°F 63.6°F17.6°F 69.6°F20.9°F
Dew Point 65.4°F18.6°F 60.1°F15.6°F 61.9°F16.6°F
Winds 11.5 mph -18.5 mph - Calm Calm 3.7 mph 6.0 mph
Wind Gusts 19.6 mph31.5 mph -- 6.4 mph10.3 mph
Humidity 89% 57% 78%
Pressure 30.18 in1022.00 in 30.00 in1015.90 in -
Precipitation 0.00 in0.00 in - -
Hour Temp Dew Point Humidity Winds Wind Gusts Pressure Precip Precip Rate Daily Precip Total
12:00 AM 64.5°F18.1°C 60.2°F15.7°C 86% 3.5 mph E5.6 kmh E 4.6 mph7.4 kmh 30.18 in1022.0 mb - 0.00 in0.0 mm 0.00 in0.0 mm
12:10 AM 64.5°F18.1°C 60.2°F15.7°C 86% 2.3 mph E3.7 kmh E 4.6 mph7.4 kmh 30.18 in1022.0 mb - 0.00 in0.0 mm 0.00 in0.0 mm
12:20 AM 64.5°F18.1°C 60.2°F15.7°C 86% 4.6 mph E7.4 kmh E 9.2 mph14.8 kmh 30.18 in1022.0 mb - 0.00 in0.0 mm 0.00 in0.0 mm
12:30 AM 64.5°F18.1°C 60.2°F15.7°C 86% 3.5 mph ENE5.6 kmh ENE 5.8 mph9.3 kmh 30.18 in1022.0 mb - 0.00 in0.0 mm 0.00 in0.0 mm
12:40 AM 64.5°F18.1°C 60.2°F15.7°C 86% 2.3 mph E3.7 kmh E 4.6 mph7.4 kmh 30.17 in1021.7 mb - 0.00 in0.0 mm 0.00 in0.0 mm
12:50 AM 64.5°F18.1°C 60.5°F15.8°C 87% 2.3 mph E3.7 kmh E 2.3 mph3.7 kmh 30.17 in1021.7 mb - 0.00 in0.0 mm 0.00 in0.0 mm
01:00 AM 64.4°F18.0°C 60.4°F15.8°C 87% 1.2 mph E1.9 kmh E 3.5 mph5.6 kmh 30.17 in1021.7 mb - 0.00 in0.0 mm 0.00 in0.0 mm
01:10 AM 64.3°F17.9°C 60.3°F15.7°C 87% 2.3 mph E3.7 kmh E 3.5 mph5.6 kmh 30.16 in1021.3 mb - 0.00 in0.0 mm 0.00 in0.0 mm
01:20 AM 64.3°F17.9°C 60.3°F15.7°C 87% 3.5 mph E5.6 kmh E 6.9 mph11.1 kmh 30.16 in1021.3 mb - 0.00 in0.0 mm 0.00 in0.0 mm
01:30 AM 64.3°F17.9°C 60.3°F15.7°C 87% 3.5 mph ENE5.6 kmh ENE 4.6 mph7.4 kmh 30.16 in1021.3 mb - 0.00 in0.0 mm 0.00 in0.0 mm
01:40 AM 64.3°F17.9°C 60.3°F15.7°C 87% 3.5 mph E5.6 kmh E 9.2 mph14.8 kmh 30.16 in1021.3 mb - 0.00 in0.0 mm 0.00 in0.0 mm
01:50 AM 64.2°F17.9°C 60.2°F15.7°C 87% 3.5 mph E5.6 kmh E 4.6 mph7.4 kmh 30.16 in1021.3 mb - 0.00 in0.0 mm 0.00 in0.0 mm
02:00 AM 64.2°F17.9°C 60.2°F15.7°C 87% 1.2 mph NE1.9 kmh NE 3.5 mph5.6 kmh 30.16 in1021.3 mb - 0.00 in0.0 mm 0.00 in0.0 mm
02:10 AM 64.3°F17.9°C 60.3°F15.7°C 87% 1.2 mph E1.9 kmh E 3.5 mph5.6 kmh 30.16 in1021.3 mb - 0.00 in0.0 mm 0.00 in0.0 mm
02:20 AM 64.2°F17.9°C 60.2°F15.7°C 87% 1.2 mph E1.9 kmh E 2.3 mph3.7 kmh 30.15 in1021.0 mb - 0.00 in0.0 mm 0.00 in0.0 mm
02:30 AM 64.2°F17.9°C 60.2°F15.7°C 87% Calm Calm 1.2 mph1.9 kmh 30.16 in1021.3 mb - 0.00 in0.0 mm 0.00 in0.0 mm
02:40 AM 64.2°F17.9°C 60.2°F15.7°C 87% 1.2 mph E1.9 kmh E 3.5 mph5.6 kmh 30.15 in1021.0 mb - 0.00 in0.0 mm 0.00 in0.0 mm
02:50 AM 64.2°F17.9°C 60.6°F15.9°C 88% 1.2 mph E1.9 kmh E 2.3 mph3.7 kmh 30.14 in1020.7 mb - 0.00 in0.0 mm 0.00 in0.0 mm
03:00 AM 64.2°F17.9°C 60.6°F15.9°C 88% 1.2 mph ESE1.9 kmh ESE 3.5 mph5.6 kmh 30.14 in1020.7 mb - 0.00 in0.0 mm 0.00 in0.0 mm
03:10 AM 64.1°F17.8°C 60.5°F15.8°C 88% Calm Calm 1.2 mph1.9 kmh 30.14 in1020.7 mb - 0.00 in0.0 mm 0.00 in0.0 mm
03:20 AM 64.1°F17.8°C 60.5°F15.8°C 88% 1.2 mph E1.9 kmh E 3.5 mph5.6 kmh 30.13 in1020.3 mb - 0.00 in0.0 mm 0.00 in0.0 mm
03:30 AM 64.1°F17.8°C 60.5°F15.8°C 88% 2.3 mph E3.7 kmh E 3.5 mph5.6 kmh 30.13 in1020.3 mb - 0.00 in0.0 mm 0.00 in0.0 mm
03:40 AM 64.0°F17.8°C 60.4°F15.8°C 88% 2.3 mph ENE3.7 kmh ENE 3.5 mph5.6 kmh 30.12 in1020.0 mb - 0.00 in0.0 mm 0.00 in0.0 mm
03:50 AM 63.8°F17.7°C 60.2°F15.7°C 88% 2.3 mph ENE3.7 kmh ENE 3.5 mph5.6 kmh 30.12 in1020.0 mb - 0.00 in0.0 mm 0.00 in0.0 mm
04:00 AM 63.7°F17.6°C 60.1°F15.6°C 88% 1.2 mph ENE1.9 kmh ENE 3.5 mph5.6 kmh 30.12 in1020.0 mb - 0.00 in0.0 mm 0.00 in0.0 mm
04:10 AM 63.7°F17.6°C 60.1°F15.6°C 88% 1.2 mph NE1.9 kmh NE 2.3 mph3.7 kmh 30.12 in1020.0 mb - 0.00 in0.0 mm 0.00 in0.0 mm
04:20 AM 63.7°F17.6°C 60.1°F15.6°C 88% 1.2 mph NE1.9 kmh NE 2.3 mph3.7 kmh 30.12 in1020.0 mb - 0.00 in0.0 mm 0.00 in0.0 mm
04:30 AM 63.7°F17.6°C 60.1°F15.6°C 88% 3.5 mph NE5.6 kmh NE 3.5 mph5.6 kmh 30.12 in1020.0 mb - 0.00 in0.0 mm 0.00 in0.0 mm
04:40 AM 63.8°F17.7°C 60.5°F15.8°C 89% 1.2 mph ENE1.9 kmh ENE 3.5 mph5.6 kmh 30.12 in1020.0 mb - 0.00 in0.0 mm 0.00 in0.0 mm
04:50 AM 63.8°F17.7°C 60.5°F15.8°C 89% 3.5 mph ENE5.6 kmh ENE 3.5 mph5.6 kmh 30.12 in1020.0 mb - 0.00 in0.0 mm 0.00 in0.0 mm
05:00 AM 63.8°F17.7°C 60.5°F15.8°C 89% 1.2 mph E1.9 kmh E 3.5 mph5.6 kmh 30.12 in1020.0 mb - 0.00 in0.0 mm 0.00 in0.0 mm
05:10 AM 63.8°F17.7°C 60.5°F15.8°C 89% 2.3 mph ENE3.7 kmh ENE 3.5 mph5.6 kmh 30.12 in1020.0 mb - 0.00 in0.0 mm 0.00 in0.0 mm
05:20 AM 63.8°F17.7°C 60.5°F15.8°C 89% 1.2 mph NE1.9 kmh NE 2.3 mph3.7 kmh 30.12 in1020.0 mb - 0.00 in0.0 mm 0.00 in0.0 mm
05:30 AM 63.6°F17.6°C 60.3°F15.7°C 89% Calm Calm 1.2 mph1.9 kmh 30.12 in1020.0 mb - 0.00 in0.0 mm 0.00 in0.0 mm
05:40 AM 63.6°F17.6°C 60.3°F15.7°C 89% 1.2 mph ENE1.9 kmh ENE 2.3 mph3.7 kmh 30.12 in1020.0 mb - 0.00 in0.0 mm 0.00 in0.0 mm
05:50 AM 63.6°F17.6°C 60.3°F15.7°C 89% 1.2 mph ENE1.9 kmh ENE 3.5 mph5.6 kmh 30.12 in1020.0 mb - 0.00 in0.0 mm 0.00 in0.0 mm
06:00 AM 63.6°F17.6°C 60.3°F15.7°C 89% 1.2 mph E1.9 kmh E 2.3 mph3.7 kmh 30.12 in1020.0 mb - 0.00 in0.0 mm 0.00 in0.0 mm
06:10 AM 63.7°F17.6°C 60.4°F15.8°C 89% 1.2 mph ENE1.9 kmh ENE 2.3 mph3.7 kmh 30.12 in1020.0 mb - 0.00 in0.0 mm 0.00 in0.0 mm
06:20 AM 63.7°F17.6°C 60.4°F15.8°C 89% 1.2 mph ENE1.9 kmh ENE 3.5 mph5.6 kmh 30.12 in1020.0 mb - 0.00 in0.0 mm 0.00 in0.0 mm
06:30 AM 63.7°F17.6°C 60.4°F15.8°C 89% 1.2 mph ENE1.9 kmh ENE 2.3 mph3.7 kmh 30.12 in1020.0 mb - 0.00 in0.0 mm 0.00 in0.0 mm
06:40 AM 63.8°F17.7°C 60.5°F15.8°C 89% 2.3 mph NE3.7 kmh NE 2.3 mph3.7 kmh 30.12 in1020.0 mb - 0.00 in0.0 mm 0.00 in0.0 mm
06:50 AM 63.9°F17.7°C 60.6°F15.9°C 89% 2.3 mph NE3.7 kmh NE 3.5 mph5.6 kmh 30.12 in1020.0 mb - 0.00 in0.0 mm 0.00 in0.0 mm
07:00 AM 64.1°F17.8°C 60.8°F16.0°C 89% 2.3 mph ENE3.7 kmh ENE 2.3 mph3.7 kmh 30.12 in1020.0 mb - 0.00 in0.0 mm 0.00 in0.0 mm
07:10 AM 64.2°F17.9°C 60.9°F16.1°C 89% 2.3 mph NE3.7 kmh NE 3.5 mph5.6 kmh 30.13 in1020.3 mb - 0.00 in0.0 mm 0.00 in0.0 mm
07:20 AM 64.4°F18.0°C 61.1°F16.2°C 89% 2.3 mph ENE3.7 kmh ENE 3.5 mph5.6 kmh 30.13 in1020.3 mb - 0.00 in0.0 mm 0.00 in0.0 mm
07:30 AM 64.7°F18.2°C 61.4°F16.3°C 89% 2.3 mph NE3.7 kmh NE 3.5 mph5.6 kmh 30.13 in1020.3 mb - 0.00 in0.0 mm 0.00 in0.0 mm
07:40 AM 64.9°F18.3°C 61.6°F16.4°C 89% 2.3 mph E3.7 kmh E 3.5 mph5.6 kmh 30.14 in1020.7 mb - 0.00 in0.0 mm 0.00 in0.0 mm
07:50 AM 65.2°F18.4°C 61.8°F16.6°C 89% 2.3 mph NE3.7 kmh NE 2.3 mph3.7 kmh 30.14 in1020.7 mb - 0.00 in0.0 mm 0.00 in0.0 mm
08:00 AM 65.5°F18.6°C 61.9°F16.6°C 88% 2.3 mph ENE3.7 kmh ENE 3.5 mph5.6 kmh 30.13 in1020.3 mb - 0.00 in0.0 mm 0.00 in0.0 mm
08:10 AM 65.8°F18.8°C 62.1°F16.7°C 88% 2.3 mph E3.7 kmh E 3.5 mph5.6 kmh 30.13 in1020.3 mb - 0.00 in0.0 mm 0.00 in0.0 mm
08:20 AM 66.1°F18.9°C 62.4°F16.9°C 88% 1.2 mph ENE1.9 kmh ENE 3.5 mph5.6 kmh 30.13 in1020.3 mb - 0.00 in0.0 mm 0.00 in0.0 mm
08:30 AM 66.4°F19.1°C 62.1°F16.7°C 86% 1.2 mph ENE1.9 kmh ENE 2.3 mph3.7 kmh 30.13 in1020.3 mb - 0.00 in0.0 mm 0.00 in0.0 mm
08:40 AM 66.8°F19.3°C 62.5°F16.9°C 86% 2.3 mph ENE3.7 kmh ENE 3.5 mph5.6 kmh 30.13 in1020.3 mb - 0.00 in0.0 mm 0.00 in0.0 mm
08:50 AM 67.1°F19.5°C 62.4°F16.9°C 85% 2.3 mph NE3.7 kmh NE 3.5 mph5.6 kmh 30.13 in1020.3 mb - 0.00 in0.0 mm 0.00 in0.0 mm
09:00 AM 67.6°F19.8°C 62.6°F17.0°C 84% 2.3 mph ENE3.7 kmh ENE 3.5 mph5.6 kmh 30.12 in1020.0 mb - 0.00 in0.0 mm 0.00 in0.0 mm
09:10 AM 68.0°F20.0°C 62.6°F17.0°C 83% 3.5 mph E5.6 kmh E 4.6 mph7.4 kmh 30.12 in1020.0 mb - 0.00 in0.0 mm 0.00 in0.0 mm
09:20 AM 68.6°F20.3°C 62.8°F17.1°C 82% 1.2 mph NE1.9 kmh NE 2.3 mph3.7 kmh 30.12 in1020.0 mb - 0.00 in0.0 mm 0.00 in0.0 mm
09:30 AM 69.7°F20.9°C 63.2°F17.3°C 80% 2.3 mph ENE3.7 kmh ENE 3.5 mph5.6 kmh 30.12 in1020.0 mb - 0.00 in0.0 mm 0.00 in0.0 mm
09:40 AM 71.2°F21.8°C 64.0°F17.8°C 78% 2.3 mph N3.7 kmh N 6.9 mph11.1 kmh 30.11 in1019.6 mb - 0.00 in0.0 mm 0.00 in0.0 mm
09:50 AM 72.4°F22.4°C 63.2°F17.3°C 73% 4.6 mph E7.4 kmh E 5.8 mph9.3 kmh 30.11 in1019.6 mb - 0.00 in0.0 mm 0.00 in0.0 mm
10:00 AM 73.7°F23.2°C 63.3°F17.4°C 70% 4.6 mph NE7.4 kmh NE 8.1 mph13.0 kmh 30.10 in1019.3 mb - 0.00 in0.0 mm 0.00 in0.0 mm
10:10 AM 74.5°F23.6°C 63.6°F17.6°C 69% 3.5 mph NNE5.6 kmh NNE 6.9 mph11.1 kmh 30.10 in1019.3 mb - 0.00 in0.0 mm 0.00 in0.0 mm
10:20 AM 75.8°F24.3°C 64.0°F17.8°C 67% 2.3 mph E3.7 kmh E 6.9 mph11.1 kmh 30.10 in1019.3 mb - 0.00 in0.0 mm 0.00 in0.0 mm
10:30 AM 76.6°F24.8°C 64.4°F18.0°C 66% 2.3 mph NE3.7 kmh NE 8.1 mph13.0 kmh 30.09 in1019.0 mb - 0.00 in0.0 mm 0.00 in0.0 mm
10:40 AM 77.4°F25.2°C 63.8°F17.7°C 63% 3.5 mph NE5.6 kmh NE 4.6 mph7.4 kmh 30.09 in1019.0 mb - 0.00 in0.0 mm 0.00 in0.0 mm
10:50 AM 77.9°F25.5°C 63.3°F17.4°C 61% 2.3 mph NNE3.7 kmh NNE 3.5 mph5.6 kmh 30.09 in1019.0 mb - 0.00 in0.0 mm 0.00 in0.0 mm
11:00 AM 78.4°F25.8°C 63.8°F17.7°C 61% 1.2 mph NE1.9 kmh NE 2.3 mph3.7 kmh 30.08 in1018.6 mb - 0.00 in0.0 mm 0.00 in0.0 mm
11:10 AM 79.2°F26.2°C 64.1°F17.8°C 60% 4.6 mph NNE7.4 kmh NNE 5.8 mph9.3 kmh 30.08 in1018.6 mb - 0.00 in0.0 mm 0.00 in0.0 mm
11:20 AM 79.6°F26.4°C 65.0°F18.3°C 61% 3.5 mph NE5.6 kmh NE 3.5 mph5.6 kmh 30.08 in1018.6 mb - 0.00 in0.0 mm 0.00 in0.0 mm
11:30 AM 79.6°F26.4°C 64.0°F17.8°C 59% 3.5 mph ENE5.6 kmh ENE 8.1 mph13.0 kmh 30.07 in1018.3 mb - 0.00 in0.0 mm 0.00 in0.0 mm
11:40 AM 80.1°F26.7°C 64.5°F18.1°C 59% 5.8 mph NE9.3 kmh NE 8.1 mph13.0 kmh 30.07 in1018.3 mb - 0.00 in0.0 mm 0.00 in0.0 mm
11:50 AM 80.5°F26.9°C 64.4°F18.0°C 58% 8.1 mph ENE13.0 kmh ENE 11.5 mph18.5 kmh 30.07 in1018.3 mb - 0.00 in0.0 mm 0.00 in0.0 mm
12:00 PM 80.3°F26.8°C 65.1°F18.4°C 60% 4.6 mph NE7.4 kmh NE 10.4 mph16.7 kmh 30.07 in1018.3 mb - 0.00 in0.0 mm 0.00 in0.0 mm
12:10 PM 80.4°F26.9°C 64.8°F18.2°C 59% 5.8 mph NNE9.3 kmh NNE 6.9 mph11.1 kmh 30.06 in1017.9 mb - 0.00 in0.0 mm 0.00 in0.0 mm
12:20 PM 79.5°F26.4°C 64.4°F18.0°C 60% 5.8 mph NE9.3 kmh NE 11.5 mph18.5 kmh 30.05 in1017.6 mb - 0.00 in0.0 mm 0.00 in0.0 mm
12:30 PM 79.6°F26.4°C 64.5°F18.1°C 60% 5.8 mph NE9.3 kmh NE 6.9 mph11.1 kmh 30.05 in1017.6 mb - 0.00 in0.0 mm 0.00 in0.0 mm
12:40 PM 79.4°F26.3°C 64.8°F18.2°C 61% 6.9 mph ENE11.1 kmh ENE 11.5 mph18.5 kmh 30.05 in1017.6 mb - 0.00 in0.0 mm 0.00 in0.0 mm
12:50 PM 79.5°F26.4°C 64.4°F18.0°C 60% 8.1 mph NE13.0 kmh NE 12.7 mph20.4 kmh 30.04 in1017.3 mb - 0.00 in0.0 mm 0.00 in0.0 mm
01:00 PM 79.7°F26.5°C 65.1°F18.4°C 61% 6.9 mph NE11.1 kmh NE 10.4 mph16.7 kmh 30.04 in1017.3 mb - 0.00 in0.0 mm 0.00 in0.0 mm
01:10 PM 80.2°F26.8°C 65.1°F18.4°C 60% 4.6 mph ENE7.4 kmh ENE 6.9 mph11.1 kmh 30.03 in1016.9 mb - 0.00 in0.0 mm 0.00 in0.0 mm
01:20 PM 80.4°F26.9°C 64.3°F17.9°C 58% 3.5 mph NNE5.6 kmh NNE 9.2 mph14.8 kmh 30.03 in1016.9 mb - 0.00 in0.0 mm 0.00 in0.0 mm
01:30 PM 81.2°F27.3°C 65.0°F18.3°C 58% 4.6 mph NNE7.4 kmh NNE 9.2 mph14.8 kmh 30.03 in1016.9 mb - 0.00 in0.0 mm 0.00 in0.0 mm
01:40 PM 81.5°F27.5°C 65.3°F18.5°C 58% 4.6 mph NE7.4 kmh NE 6.9 mph11.1 kmh 30.02 in1016.6 mb - 0.00 in0.0 mm 0.00 in0.0 mm
01:50 PM 81.4°F27.4°C 64.7°F18.2°C 57% 5.8 mph NE9.3 kmh NE 8.1 mph13.0 kmh 30.02 in1016.6 mb - 0.00 in0.0 mm 0.00 in0.0 mm
02:00 PM 81.5°F27.5°C 64.8°F18.2°C 57% 5.8 mph ENE9.3 kmh ENE 10.4 mph16.7 kmh 30.02 in1016.6 mb - 0.00 in0.0 mm 0.00 in0.0 mm
02:10 PM 81.6°F27.6°C 65.4°F18.6°C 58% 5.8 mph ENE9.3 kmh ENE 11.5 mph18.5 kmh 30.02 in1016.6 mb - 0.00 in0.0 mm 0.00 in0.0 mm
02:20 PM 81.6°F27.6°C 64.9°F18.3°C 57% 8.1 mph NE13.0 kmh NE 10.4 mph16.7 kmh 30.01 in1016.3 mb - 0.00 in0.0 mm 0.00 in0.0 mm
02:30 PM 81.5°F27.5°C 64.8°F18.2°C 57% 5.8 mph ENE9.3 kmh ENE 9.2 mph14.8 kmh 30.00 in1015.9 mb - 0.00 in0.0 mm 0.00 in0.0 mm
02:40 PM 81.6°F27.6°C 64.9°F18.3°C 57% 4.6 mph NE7.4 kmh NE 9.2 mph14.8 kmh 30.00 in1015.9 mb - 0.00 in0.0 mm 0.00 in0.0 mm
02:50 PM 81.4°F27.4°C 64.7°F18.2°C 57% 4.6 mph NE7.4 kmh NE 11.5 mph18.5 kmh 30.00 in1015.9 mb - 0.00 in0.0 mm 0.00 in0.0 mm
03:00 PM 81.1°F27.3°C 64.4°F18.0°C 57% 5.8 mph NE9.3 kmh NE 12.7 mph20.4 kmh 30.00 in1015.9 mb - 0.00 in0.0 mm 0.00 in0.0 mm
03:10 PM 80.9°F27.2°C 64.2°F17.9°C 57% 6.9 mph ENE11.1 kmh ENE 11.5 mph18.5 kmh 30.00 in1015.9 mb - 0.00 in0.0 mm 0.00 in0.0 mm
03:20 PM 80.9°F27.2°C 64.8°F18.2°C 58% 8.1 mph ENE13.0 kmh ENE 12.7 mph20.4 kmh 30.00 in1015.9 mb - 0.00 in0.0 mm 0.00 in0.0 mm
03:30 PM 80.3°F26.8°C 64.7°F18.2°C 59% 5.8 mph ENE9.3 kmh ENE 6.9 mph11.1 kmh 30.00 in1015.9 mb - 0.00 in0.0 mm 0.00 in0.0 mm
03:40 PM 79.6°F26.4°C 64.0°F17.8°C 59% 9.2 mph E14.8 kmh E 11.5 mph18.5 kmh 30.00 in1015.9 mb - 0.00 in0.0 mm 0.00 in0.0 mm
03:50 PM 78.8°F26.0°C 63.7°F17.6°C 60% 6.9 mph E11.1 kmh E 11.5 mph18.5 kmh 30.00 in1015.9 mb - 0.00 in0.0 mm 0.00 in0.0 mm
04:00 PM 78.2°F25.7°C 64.1°F17.8°C 62% 4.6 mph ESE7.4 kmh ESE 8.1 mph13.0 kmh 30.00 in1015.9 mb - 0.00 in0.0 mm 0.00 in0.0 mm
04:10 PM 77.7°F25.4°C 63.7°F17.6°C 62% 9.2 mph E14.8 kmh E 15.0 mph24.1 kmh 30.00 in1015.9 mb - 0.00 in0.0 mm 0.00 in0.0 mm
04:20 PM 76.6°F24.8°C 63.6°F17.6°C 64% 9.2 mph ENE14.8 kmh ENE 16.1 mph25.9 kmh 30.00 in1015.9 mb - 0.00 in0.0 mm 0.00 in0.0 mm
04:30 PM 75.5°F24.2°C 63.3°F17.4°C 66% 6.9 mph ENE11.1 kmh ENE 19.6 mph31.5 kmh 30.00 in1015.9 mb - 0.00 in0.0 mm 0.00 in0.0 mm
04:40 PM 74.4°F23.6°C 63.2°F17.3°C 68% 8.1 mph E13.0 kmh E 16.1 mph25.9 kmh 30.00 in1015.9 mb - 0.00 in0.0 mm 0.00 in0.0 mm
04:50 PM 73.7°F23.2°C 62.9°F17.2°C 69% 10.4 mph E16.7 kmh E 13.8 mph22.2 kmh 30.00 in1015.9 mb - 0.00 in0.0 mm 0.00 in0.0 mm
05:00 PM 72.9°F22.7°C 62.5°F16.9°C 70% 5.8 mph E9.3 kmh E 11.5 mph18.5 kmh 30.00 in1015.9 mb - 0.00 in0.0 mm 0.00 in0.0 mm
05:10 PM 72.4°F22.4°C 62.5°F16.9°C 71% 9.2 mph E14.8 kmh E 12.7 mph20.4 kmh 30.00 in1015.9 mb - 0.00 in0.0 mm 0.00 in0.0 mm
05:20 PM 71.8°F22.1°C 62.3°F16.8°C 72% 11.5 mph ENE18.5 kmh ENE 15.0 mph24.1 kmh 30.00 in1015.9 mb - 0.00 in0.0 mm 0.00 in0.0 mm
05:30 PM 71.3°F21.8°C 62.2°F16.8°C 73% 6.9 mph ENE11.1 kmh ENE 11.5 mph18.5 kmh 30.00 in1015.9 mb - 0.00 in0.0 mm 0.00 in0.0 mm
05:40 PM 70.9°F21.6°C 62.2°F16.8°C 74% 6.9 mph E11.1 kmh E 16.1 mph25.9 kmh 30.00 in1015.9 mb - 0.00 in0.0 mm 0.00 in0.0 mm
05:50 PM 70.5°F21.4°C 61.8°F16.6°C 74% 6.9 mph E11.1 kmh E 10.4 mph16.7 kmh 30.00 in1015.9 mb - 0.00 in0.0 mm 0.00 in0.0 mm
06:00 PM 70.2°F21.2°C 61.5°F16.4°C 74% 9.2 mph E14.8 kmh E 11.5 mph18.5 kmh 30.01 in1016.3 mb - 0.00 in0.0 mm 0.00 in0.0 mm
06:10 PM 69.8°F21.0°C 61.5°F16.4°C 75% 6.9 mph ESE11.1 kmh ESE 9.2 mph14.8 kmh 30.01 in1016.3 mb - 0.00 in0.0 mm 0.00 in0.0 mm
06:20 PM 69.2°F20.7°C 60.9°F16.1°C 75% 6.9 mph E11.1 kmh E 9.2 mph14.8 kmh 30.02 in1016.6 mb - 0.00 in0.0 mm 0.00 in0.0 mm
06:30 PM 68.9°F20.5°C 61.0°F16.1°C 76% 5.8 mph E9.3 kmh E 15.0 mph24.1 kmh 30.02 in1016.6 mb - 0.00 in0.0 mm 0.00 in0.0 mm
06:40 PM 68.5°F20.3°C 61.0°F16.1°C 77% 5.8 mph E9.3 kmh E 11.5 mph18.5 kmh 30.02 in1016.6 mb - 0.00 in0.0 mm 0.00 in0.0 mm
06:50 PM 68.0°F20.0°C 60.9°F16.1°C 78% 4.6 mph E7.4 kmh E 5.8 mph9.3 kmh 30.02 in1016.6 mb - 0.00 in0.0 mm 0.00 in0.0 mm
07:00 PM 67.8°F19.9°C 60.7°F15.9°C 78% 3.5 mph E5.6 kmh E 8.1 mph13.0 kmh 30.03 in1016.9 mb - 0.00 in0.0 mm 0.00 in0.0 mm
07:10 PM 67.5°F19.7°C 60.8°F16.0°C 79% 6.9 mph E11.1 kmh E 10.4 mph16.7 kmh 30.03 in1016.9 mb - 0.00 in0.0 mm 0.00 in0.0 mm
07:20 PM 67.3°F19.6°C 60.6°F15.9°C 79% 4.6 mph E7.4 kmh E 6.9 mph11.1 kmh 30.04 in1017.3 mb - 0.00 in0.0 mm 0.00 in0.0 mm
07:30 PM 67.0°F19.4°C 60.6°F15.9°C 80% 8.1 mph ENE13.0 kmh ENE 11.5 mph18.5 kmh 30.04 in1017.3 mb - 0.00 in0.0 mm 0.00 in0.0 mm
07:40 PM 66.7°F19.3°C 60.7°F15.9°C 81% 2.3 mph ENE3.7 kmh ENE 6.9 mph11.1 kmh 30.04 in1017.3 mb - 0.00 in0.0 mm 0.00 in0.0 mm
07:50 PM 66.4°F19.1°C 60.4°F15.8°C 81% 5.8 mph ENE9.3 kmh ENE 8.1 mph13.0 kmh 30.05 in1017.6 mb - 0.00 in0.0 mm 0.00 in0.0 mm
08:00 PM 66.2°F19.0°C 60.5°F15.8°C 82% 3.5 mph E5.6 kmh E 6.9 mph11.1 kmh 30.05 in1017.6 mb - 0.00 in0.0 mm 0.00 in0.0 mm
08:10 PM 65.8°F18.8°C 60.2°F15.7°C 82% 4.6 mph E7.4 kmh E 8.1 mph13.0 kmh 30.06 in1017.9 mb - 0.00 in0.0 mm 0.00 in0.0 mm
08:20 PM 65.6°F18.7°C 60.3°F15.7°C 83% 4.6 mph E7.4 kmh E 8.1 mph13.0 kmh 30.06 in1017.9 mb - 0.00 in0.0 mm 0.00 in0.0 mm
08:30 PM 65.4°F18.6°C 60.1°F15.6°C 83% 4.6 mph NE7.4 kmh NE 5.8 mph9.3 kmh 30.07 in1018.3 mb - 0.00 in0.0 mm 0.00 in0.0 mm
08:40 PM 65.3°F18.5°C 60.3°F15.7°C 84% 4.6 mph E7.4 kmh E 6.9 mph11.1 kmh 30.07 in1018.3 mb - 0.00 in0.0 mm 0.00 in0.0 mm
08:50 PM 65.1°F18.4°C 60.2°F15.7°C 84% 1.2 mph ENE1.9 kmh ENE 8.1 mph13.0 kmh 30.07 in1018.3 mb - 0.00 in0.0 mm 0.00 in0.0 mm
09:00 PM 65.0°F18.3°C 60.4°F15.8°C 85% 2.3 mph ENE3.7 kmh ENE 8.1 mph13.0 kmh 30.08 in1018.6 mb - 0.00 in0.0 mm 0.00 in0.0 mm
09:10 PM 64.9°F18.3°C 60.3°F15.7°C 85% 3.5 mph ESE5.6 kmh ESE 4.6 mph7.4 kmh 30.08 in1018.6 mb - 0.00 in0.0 mm 0.00 in0.0 mm
09:20 PM 64.9°F18.3°C 60.2°F15.7°C 85% 3.5 mph E5.6 kmh E 8.1 mph13.0 kmh 30.08 in1018.6 mb - 0.00 in0.0 mm 0.00 in0.0 mm
09:30 PM 64.8°F18.2°C 60.2°F15.7°C 85% 2.3 mph E3.7 kmh E 6.9 mph11.1 kmh 30.09 in1019.0 mb - 0.00 in0.0 mm 0.00 in0.0 mm
09:40 PM 64.7°F18.2°C 60.1°F15.6°C 85% 2.3 mph E3.7 kmh E 4.6 mph7.4 kmh 30.09 in1019.0 mb - 0.00 in0.0 mm 0.00 in0.0 mm
09:50 PM 64.7°F18.2°C 60.4°F15.8°C 86% 1.2 mph E1.9 kmh E 3.5 mph5.6 kmh 30.08 in1018.6 mb - 0.00 in0.0 mm 0.00 in0.0 mm
10:00 PM 64.7°F18.2°C 60.4°F15.8°C 86% 2.3 mph NE3.7 kmh NE 5.8 mph9.3 kmh 30.07 in1018.3 mb - 0.00 in0.0 mm 0.00 in0.0 mm
10:10 PM 64.6°F18.1°C 60.3°F15.7°C 86% 4.6 mph ENE7.4 kmh ENE 6.9 mph11.1 kmh 30.07 in1018.3 mb - 0.00 in0.0 mm 0.00 in0.0 mm
10:20 PM 64.6°F18.1°C 60.3°F15.7°C 86% 4.6 mph NE7.4 kmh NE 6.9 mph11.1 kmh 30.07 in1018.3 mb - 0.00 in0.0 mm 0.00 in0.0 mm
10:30 PM 64.6°F18.1°C 60.3°F15.7°C 86% 2.3 mph NE3.7 kmh NE 3.5 mph5.6 kmh 30.07 in1018.3 mb - 0.00 in0.0 mm 0.00 in0.0 mm
10:40 PM 64.6°F18.1°C 60.6°F15.9°C 87% 3.5 mph NE5.6 kmh NE 3.5 mph5.6 kmh 30.07 in1018.3 mb - 0.00 in0.0 mm 0.00 in0.0 mm
10:50 PM 64.6°F18.1°C 60.6°F15.9°C 87% 1.2 mph NE1.9 kmh NE 2.3 mph3.7 kmh 30.07 in1018.3 mb - 0.00 in0.0 mm 0.00 in0.0 mm
11:00 PM 64.5°F18.1°C 60.6°F15.9°C 87% 1.2 mph NE1.9 kmh NE 1.2 mph1.9 kmh 30.07 in1018.3 mb - 0.00 in0.0 mm 0.00 in0.0 mm
11:10 PM 64.5°F18.1°C 60.5°F15.8°C 87% Calm Calm 2.3 mph3.7 kmh 30.06 in1017.9 mb - 0.00 in0.0 mm 0.00 in0.0 mm
11:20 PM 64.5°F18.1°C 60.5°F15.8°C 87% 1.2 mph NE1.9 kmh NE 1.2 mph1.9 kmh 30.05 in1017.6 mb - 0.00 in0.0 mm 0.00 in0.0 mm
11:30 PM 64.4°F18.0°C 60.4°F15.8°C 87% Calm Calm -- 30.05 in1017.6 mb - 0.00 in0.0 mm 0.00 in0.0 mm
11:40 PM 64.3°F17.9°C 60.3°F15.7°C 87% Calm Calm -- 30.05 in1017.6 mb - 0.00 in0.0 mm 0.00 in0.0 mm
11:50 PM 64.3°F17.9°C 60.3°F15.7°C 87% Calm Calm 1.2 mph1.9 kmh 30.05 in1017.6 mb - 0.00 in0.0 mm 0.00 in0.0 mm